createdAt,value
2018-07-01T00:01:09.373Z,1.20
2018-07-01T00:03:38.376Z,1.50
2018-07-01T00:06:07.349Z,1.43
2018-07-01T00:08:35.752Z,1.70
2018-07-01T00:11:04.652Z,1.60
2018-07-01T00:13:33.580Z,1.70
2018-07-01T00:16:02.484Z,2.20
2018-07-01T00:18:31.365Z,1.50
2018-07-01T00:21:00.352Z,1.53
2018-07-01T00:23:29.264Z,1.60
2018-07-01T00:25:58.172Z,1.43
2018-07-01T00:28:27.077Z,1.40
2018-07-01T00:30:56.024Z,1.47
2018-07-01T00:33:24.931Z,1.20
2018-07-01T00:35:53.836Z,1.27
2018-07-01T00:38:22.811Z,1.37
2018-07-01T00:40:51.993Z,1.23
2018-07-01T00:43:20.888Z,1.27
2018-07-01T00:45:49.839Z,1.10
2018-07-01T00:48:18.747Z,1.20
2018-07-01T00:50:47.715Z,1.07
2018-07-01T00:53:16.608Z,1.20
2018-07-01T00:55:45.568Z,1.20
2018-07-01T00:58:14.514Z,1.10
2018-07-01T01:00:43.345Z,1.00
2018-07-01T01:03:11.811Z,1.20
2018-07-01T01:05:40.680Z,1.00
2018-07-01T01:08:09.708Z,1.10
2018-07-01T01:10:38.672Z,1.13
2018-07-01T01:13:07.627Z,1.03
2018-07-01T01:15:36.512Z,0.90
2018-07-01T01:18:05.429Z,1.00
2018-07-01T01:20:34.341Z,1.40
2018-07-01T01:23:03.261Z,0.90
2018-07-01T01:25:31.726Z,0.93
2018-07-01T01:28:00.620Z,1.00
2018-07-01T01:30:29.548Z,0.90
2018-07-01T01:32:58.440Z,0.90
2018-07-01T01:35:27.429Z,0.73
2018-07-01T01:37:56.346Z,1.03
2018-07-01T01:40:28.729Z,1.10
2018-07-01T01:43:03.721Z,1.03
2018-07-01T01:45:37.504Z,1.20
2018-07-01T01:48:11.236Z,0.90
2018-07-01T01:51:14.503Z,2.10
2018-07-01T01:53:48.601Z,1.27
2018-07-01T01:56:27.915Z,1.00
2018-07-01T02:00:01.409Z,1.00
2018-07-01T02:02:39.319Z,1.10
2018-07-01T02:05:43.509Z,1.13
2018-07-01T02:08:24.524Z,1.00
2018-07-01T02:10:53.500Z,1.00
2018-07-01T02:13:22.496Z,1.20
2018-07-01T02:15:56.016Z,1.17
2018-07-01T02:18:25.096Z,1.00
2018-07-01T02:20:53.984Z,1.20
2018-07-01T02:23:28.108Z,1.23
2018-07-01T02:25:57.068Z,1.00
2018-07-01T02:28:26.118Z,1.20
2018-07-01T02:30:54.968Z,1.00
2018-07-01T02:33:23.932Z,1.07
2018-07-01T02:35:52.764Z,1.03
2018-07-01T02:38:21.715Z,1.07
2018-07-01T02:40:50.699Z,1.20
2018-07-01T02:43:19.676Z,1.20
2018-07-01T02:45:48.079Z,1.00
2018-07-01T02:48:17.000Z,0.80
2018-07-01T02:50:45.936Z,1.27
2018-07-01T02:53:14.369Z,1.10
2018-07-01T02:55:43.325Z,1.00
2018-07-01T02:58:12.168Z,1.20
2018-07-01T03:00:41.084Z,1.00
2018-07-01T03:03:10.034Z,1.23
2018-07-01T03:05:38.945Z,1.17
2018-07-01T03:08:08.178Z,1.10
2018-07-01T03:10:36.604Z,1.30
2018-07-01T03:13:05.628Z,1.30
2018-07-01T03:15:34.544Z,1.30
2018-07-01T03:18:02.984Z,1.40
2018-07-01T03:20:31.858Z,1.20
2018-07-01T03:23:00.756Z,0.90
2018-07-01T03:25:29.661Z,1.30
2018-07-01T03:27:58.510Z,1.43
2018-07-01T03:30:27.427Z,1.20
2018-07-01T03:32:56.261Z,1.10
2018-07-01T03:35:24.696Z,1.10
2018-07-01T03:37:53.765Z,1.07
2018-07-01T03:40:22.586Z,1.13
2018-07-01T03:42:51.464Z,1.23
2018-07-01T03:45:20.408Z,1.20
2018-07-01T03:47:48.909Z,1.20
2018-07-01T03:50:17.947Z,1.07
2018-07-01T03:52:46.796Z,1.07
2018-07-01T03:55:15.630Z,1.20
2018-07-01T03:57:44.638Z,1.50
2018-07-01T04:00:13.536Z,1.30
2018-07-01T04:02:42.412Z,1.20
2018-07-01T04:05:11.325Z,1.03
2018-07-01T04:07:40.236Z,1.30
2018-07-01T04:10:09.132Z,0.93
2018-07-01T04:12:37.944Z,1.40
2018-07-01T04:15:06.877Z,1.30
2018-07-01T04:17:35.376Z,1.30
2018-07-01T04:20:03.895Z,1.20
2018-07-01T04:22:32.828Z,1.53
2018-07-01T04:25:01.729Z,1.20
2018-07-01T04:27:30.159Z,1.00
2018-07-01T04:29:59.040Z,1.27
2018-07-01T04:32:27.921Z,1.03
2018-07-01T04:34:56.812Z,1.30
2018-07-01T04:37:25.744Z,1.30
2018-07-01T04:39:54.556Z,1.07
2018-07-01T04:42:23.043Z,1.30
2018-07-01T04:44:51.503Z,1.20
2018-07-01T04:47:20.361Z,1.30
2018-07-01T04:49:49.327Z,1.30
2018-07-01T04:52:18.151Z,1.10
2018-07-01T04:54:47.045Z,1.30
2018-07-01T04:57:15.984Z,1.10
2018-07-01T04:59:44.491Z,1.07
2018-07-01T05:02:13.432Z,1.37
2018-07-01T05:04:42.256Z,1.13
2018-07-01T05:07:11.140Z,1.13
2018-07-01T05:09:40.063Z,1.20
2018-07-01T05:12:08.987Z,1.10
2018-07-01T05:14:37.913Z,1.00
2018-07-01T05:17:06.813Z,1.30
2018-07-01T05:19:35.721Z,1.23
2018-07-01T05:22:04.707Z,1.20
2018-07-01T05:24:33.628Z,1.10
2018-07-01T05:27:02.516Z,1.33
2018-07-01T05:29:31.404Z,0.90
2018-07-01T05:32:00.289Z,1.10
2018-07-01T05:34:29.160Z,1.07
2018-07-01T05:36:58.074Z,1.10
2018-07-01T05:39:26.998Z,1.20
2018-07-01T05:41:55.920Z,1.20
2018-07-01T05:44:24.749Z,1.30
2018-07-01T05:46:53.726Z,1.07
2018-07-01T05:49:22.605Z,1.30
2018-07-01T05:51:51.532Z,1.53
2018-07-01T05:54:20.440Z,4.70
2018-07-01T05:56:49.482Z,2.70
2018-07-01T05:59:18.473Z,2.67
2018-07-01T06:01:47.328Z,1.77
2018-07-01T06:04:15.763Z,2.67
2018-07-01T06:06:44.637Z,7.00
2018-07-01T06:09:14.022Z,1.77
2018-07-01T06:11:43.584Z,3.80
2018-07-01T06:14:12.456Z,4.67
2018-07-01T06:16:41.468Z,2.43
2018-07-01T06:19:10.342Z,3.33
2018-07-01T06:21:39.373Z,11.20
2018-07-01T06:24:08.288Z,15.57
2018-07-01T06:26:37.226Z,12.77
2018-07-01T06:29:06.116Z,19.93
2018-07-01T06:31:35.016Z,15.73
2018-07-01T06:34:03.952Z,14.43
2018-07-01T06:36:32.884Z,3.67
2018-07-01T06:39:01.741Z,1.20
2018-07-01T06:41:30.697Z,1.23
2018-07-01T06:43:59.548Z,1.10
2018-07-01T06:46:28.500Z,1.33
2018-07-01T06:48:57.372Z,1.07
2018-07-01T06:51:26.257Z,1.00
2018-07-01T06:53:55.124Z,1.00
2018-07-01T06:56:23.982Z,1.20
2018-07-01T06:58:52.884Z,1.20
2018-07-01T07:01:21.761Z,0.90
2018-07-01T07:03:50.762Z,1.00
2018-07-01T07:06:19.692Z,1.10
2018-07-01T07:08:48.584Z,1.00
2018-07-01T07:11:17.519Z,1.40
2018-07-01T07:13:46.402Z,1.20
2018-07-01T07:16:15.301Z,1.23
2018-07-01T07:18:44.144Z,1.30
2018-07-01T07:21:13.060Z,1.20
2018-07-01T07:23:41.455Z,1.00
2018-07-01T07:26:10.419Z,1.10
2018-07-01T07:28:39.262Z,1.20
2018-07-01T07:31:08.249Z,1.57
2018-07-01T07:33:37.124Z,1.10
2018-07-01T07:36:06.016Z,1.10
2018-07-01T07:38:34.936Z,0.90
2018-07-01T07:41:03.845Z,0.93
2018-07-01T07:43:32.740Z,1.00
2018-07-01T07:46:01.626Z,2.70
2018-07-01T07:48:30.496Z,1.30
2018-07-01T07:50:59.453Z,1.10
2018-07-01T07:53:28.276Z,1.10
2018-07-01T07:55:57.214Z,1.10
2018-07-01T07:58:25.698Z,1.20
2018-07-01T08:00:54.640Z,1.30
2018-07-01T08:03:23.930Z,1.20
2018-07-01T08:05:52.849Z,1.13
2018-07-01T08:08:21.811Z,1.27
2018-07-01T08:10:50.805Z,1.00
2018-07-01T08:13:19.804Z,1.40
2018-07-01T08:15:48.736Z,1.70
2018-07-01T08:18:17.654Z,1.27
2018-07-01T08:20:46.564Z,1.60
2018-07-01T08:23:15.521Z,1.30
2018-07-01T08:25:44.373Z,1.10
2018-07-01T08:28:13.329Z,1.33
2018-07-01T08:30:42.158Z,1.30
2018-07-01T08:33:11.056Z,1.30
2018-07-01T08:35:39.909Z,1.40
2018-07-01T08:38:08.814Z,1.20
2018-07-01T08:40:37.676Z,1.30
2018-07-01T08:43:06.553Z,1.43
2018-07-01T08:45:35.065Z,1.33
2018-07-01T08:48:03.520Z,1.20
2018-07-01T08:50:32.428Z,1.10
2018-07-01T08:53:01.415Z,1.40
2018-07-01T08:55:30.292Z,1.30
2018-07-01T08:57:59.175Z,1.40
2018-07-01T09:00:27.700Z,1.70
2018-07-01T09:02:56.537Z,1.20
2018-07-01T09:05:25.476Z,1.03
2018-07-01T09:07:54.847Z,1.37
2018-07-01T09:10:23.320Z,1.27
2018-07-01T09:12:52.727Z,1.10
2018-07-01T09:15:21.721Z,1.27
2018-07-01T09:17:50.591Z,1.00
2018-07-01T09:20:19.513Z,1.00
2018-07-01T09:22:48.373Z,1.27
2018-07-01T09:25:17.362Z,1.10
2018-07-01T09:27:46.245Z,1.17
2018-07-01T09:30:15.222Z,1.10
2018-07-01T09:32:44.108Z,1.40
2018-07-01T09:35:13.042Z,1.30
2018-07-01T09:37:41.483Z,1.80
2018-07-01T09:40:10.452Z,1.17
2018-07-01T09:42:39.400Z,1.20
2018-07-01T09:45:08.332Z,1.07
2018-07-01T09:47:37.208Z,1.20
2018-07-01T09:50:06.156Z,1.07
2018-07-01T09:52:35.080Z,1.10
2018-07-01T09:55:03.560Z,1.37
2018-07-01T09:57:32.043Z,1.30
2018-07-01T10:00:00.934Z,1.07
2018-07-01T10:02:29.616Z,1.20
2018-07-01T10:04:58.496Z,1.40
2018-07-01T10:07:27.424Z,1.57
2018-07-01T10:09:56.427Z,1.30
2018-07-01T10:12:25.333Z,1.07
2018-07-01T10:14:54.220Z,1.20
2018-07-01T10:17:23.148Z,1.30
2018-07-01T10:19:52.025Z,1.27
2018-07-01T10:22:20.984Z,1.20
2018-07-01T10:24:49.874Z,1.20
2018-07-01T10:27:18.864Z,1.20
2018-07-01T10:29:47.688Z,1.20
2018-07-01T10:32:16.550Z,1.40
2018-07-01T10:34:45.436Z,1.30
2018-07-01T10:37:14.361Z,1.20
2018-07-01T10:39:43.288Z,1.10
2018-07-01T10:42:12.220Z,1.20
2018-07-01T10:44:41.143Z,1.30
2018-07-01T10:47:10.206Z,1.40
2018-07-01T10:49:39.073Z,1.07
2018-07-01T10:52:07.992Z,1.30
2018-07-01T10:54:36.883Z,1.10
2018-07-01T10:57:05.814Z,1.30
2018-07-01T10:59:34.843Z,1.30
2018-07-01T11:02:03.796Z,1.43
2018-07-01T11:04:32.646Z,1.50
2018-07-01T11:07:01.557Z,1.40
2018-07-01T11:09:30.384Z,1.20
2018-07-01T11:11:58.877Z,1.30
2018-07-01T11:14:27.800Z,2.60
2018-07-01T11:16:56.668Z,2.83
2018-07-01T11:19:25.548Z,3.23
2018-07-01T11:21:54.736Z,7.40
2018-07-01T11:24:23.826Z,4.93
2018-07-01T11:26:52.458Z,5.83
2018-07-01T11:29:21.266Z,1.60
2018-07-01T11:31:50.244Z,1.20
2018-07-01T11:34:19.089Z,1.20
2018-07-01T11:36:47.980Z,1.23
2018-07-01T11:39:16.523Z,2.80
2018-07-01T11:41:45.369Z,1.90
2018-07-01T11:44:20.713Z,1.50
2018-07-01T11:46:49.560Z,1.30
2018-07-01T11:49:18.592Z,1.30
2018-07-01T11:51:47.444Z,1.27
2018-07-01T11:54:16.443Z,1.40
2018-07-01T11:56:45.389Z,1.47
2018-07-01T11:59:14.716Z,1.30
2018-07-01T12:01:43.622Z,1.30
2018-07-01T12:04:12.675Z,1.40
2018-07-01T12:06:41.536Z,1.30
2018-07-01T12:09:10.441Z,1.30
2018-07-01T12:11:39.384Z,1.30
2018-07-01T12:14:08.280Z,1.40
2018-07-01T12:16:37.216Z,1.40
2018-07-01T12:19:06.384Z,1.40
2018-07-01T12:21:35.351Z,1.30
2018-07-01T12:24:04.229Z,1.40
2018-07-01T12:26:33.058Z,1.10
2018-07-01T12:29:01.523Z,1.07
2018-07-01T12:31:30.321Z,1.20
2018-07-01T12:33:58.816Z,1.30
2018-07-01T12:36:27.845Z,1.33
2018-07-01T12:38:56.719Z,1.20
2018-07-01T12:41:25.657Z,1.22
2018-07-01T12:43:54.477Z,1.20
2018-07-01T12:46:23.421Z,1.40
2018-07-01T12:48:52.276Z,1.47
2018-07-01T12:51:21.242Z,1.52
2018-07-01T12:53:49.631Z,1.20
2018-07-01T12:56:18.642Z,1.07
2018-07-01T12:58:47.413Z,1.65
2018-07-01T13:01:16.339Z,2.20
2018-07-01T13:03:46.452Z,1.32
2018-07-01T13:06:15.394Z,1.82
2018-07-01T13:08:43.883Z,1.47
2018-07-01T13:11:12.776Z,1.60
2018-07-01T13:13:41.235Z,1.20
2018-07-01T13:16:10.197Z,1.75
2018-07-01T13:18:39.202Z,1.60
2018-07-01T13:21:08.248Z,1.27
2018-07-01T13:23:37.174Z,1.75
2018-07-01T13:26:06.280Z,1.30
2018-07-01T13:28:35.154Z,1.47
2018-07-01T13:31:04.033Z,1.25
2018-07-01T13:33:32.943Z,1.65
2018-07-01T13:36:01.756Z,1.40
2018-07-01T13:38:36.093Z,1.45
2018-07-01T13:41:06.166Z,1.40
2018-07-01T13:43:35.149Z,1.60
2018-07-01T13:46:04.175Z,1.60
2018-07-01T13:48:33.388Z,1.50
2018-07-01T13:51:02.346Z,1.65
2018-07-01T13:53:31.284Z,1.45
2018-07-01T13:55:59.736Z,1.98
2018-07-01T13:58:28.632Z,1.40
2018-07-01T14:00:57.580Z,1.47
2018-07-01T14:03:26.428Z,1.60
2018-07-01T14:05:54.885Z,1.50
2018-07-01T14:08:23.878Z,1.40
2018-07-01T14:10:52.749Z,1.35
2018-07-01T14:13:21.677Z,1.30
2018-07-01T14:15:50.616Z,1.50
2018-07-01T14:18:19.505Z,1.35
2018-07-01T14:20:48.760Z,1.60
2018-07-01T14:23:17.684Z,1.42
2018-07-01T14:25:46.544Z,1.80
2018-07-01T14:28:15.432Z,1.77
2018-07-01T14:30:44.924Z,1.40
2018-07-01T14:33:13.883Z,1.45
2018-07-01T14:35:42.804Z,1.77
2018-07-01T14:38:11.724Z,1.60
2018-07-01T14:40:40.187Z,1.80
2018-07-01T14:43:09.168Z,1.55
2018-07-01T14:45:38.044Z,1.42
2018-07-01T14:48:06.989Z,1.50
2018-07-01T14:50:35.861Z,1.60
2018-07-01T14:53:04.780Z,1.65
2018-07-01T14:55:33.584Z,1.52
2018-07-01T14:58:02.486Z,1.60
2018-07-01T15:00:31.478Z,1.60
2018-07-01T15:03:00.379Z,1.40
2018-07-01T15:05:29.367Z,1.45
2018-07-01T15:07:59.458Z,1.85
2018-07-01T15:10:28.358Z,1.50
2018-07-01T15:12:57.311Z,1.52
2018-07-01T15:15:26.196Z,1.77
2018-07-01T15:17:55.001Z,1.60
2018-07-01T15:20:23.963Z,1.45
2018-07-01T15:22:52.800Z,1.52
2018-07-01T15:25:21.715Z,1.60
2018-07-01T15:27:50.669Z,1.50
2018-07-01T15:30:19.584Z,1.70
2018-07-01T15:32:48.496Z,1.70
2018-07-01T15:35:18.097Z,1.52
2018-07-01T15:37:46.928Z,1.60
2018-07-01T15:40:15.869Z,1.95
2018-07-01T15:42:45.212Z,1.70
2018-07-01T15:45:14.112Z,1.62
2018-07-01T15:47:43.033Z,1.92
2018-07-01T15:50:11.888Z,1.40
2018-07-01T15:52:40.768Z,1.60
2018-07-01T15:55:09.661Z,1.70
2018-07-01T15:57:38.593Z,1.70
2018-07-01T16:00:08.264Z,1.80
2018-07-01T16:02:37.228Z,1.60
2018-07-01T16:05:05.711Z,1.60
2018-07-01T16:07:34.628Z,1.70
2018-07-01T16:10:03.630Z,1.60
2018-07-01T16:12:32.469Z,1.80
2018-07-01T16:15:01.380Z,1.70
2018-07-01T16:17:30.216Z,1.90
2018-07-01T16:19:59.197Z,1.70
2018-07-01T16:22:28.060Z,1.50
2018-07-01T16:25:02.361Z,1.93
2018-07-01T16:27:35.033Z,1.90
2018-07-01T16:30:05.709Z,1.60
2018-07-01T16:32:35.692Z,1.70
2018-07-01T16:35:05.034Z,1.70
2018-07-01T16:37:35.069Z,1.83
2018-07-01T16:40:03.591Z,1.80
2018-07-01T16:42:32.498Z,1.50
2018-07-01T16:45:01.365Z,1.60
2018-07-01T16:47:30.326Z,1.73
2018-07-01T16:49:58.749Z,1.70
2018-07-01T16:52:27.707Z,2.03
2018-07-01T16:54:56.616Z,1.87
2018-07-01T16:57:26.164Z,1.67
2018-07-01T16:59:54.984Z,1.90
2018-07-01T17:02:23.929Z,1.50
2018-07-01T17:04:52.788Z,1.70
2018-07-01T17:07:21.708Z,1.90
2018-07-01T17:09:50.553Z,1.50
2018-07-01T17:12:19.504Z,2.30
2018-07-01T17:14:48.398Z,2.20
2018-07-01T17:17:17.540Z,2.00
2018-07-01T17:19:46.648Z,2.43
2018-07-01T17:22:15.702Z,2.73
2018-07-01T17:24:44.612Z,2.10
2018-07-01T17:27:13.608Z,3.03
2018-07-01T17:29:42.527Z,3.10
2018-07-01T17:32:16.668Z,2.37
2018-07-01T17:34:45.656Z,2.07
2018-07-01T17:37:14.986Z,1.30
2018-07-01T17:39:44.169Z,1.53
2018-07-01T17:42:13.128Z,1.50
2018-07-01T17:44:42.005Z,1.90
2018-07-01T17:47:11.056Z,1.90
2018-07-01T17:49:39.938Z,1.63
2018-07-01T17:52:08.879Z,1.80
2018-07-01T17:54:37.730Z,2.60
2018-07-01T17:57:06.918Z,1.73
2018-07-01T17:59:35.747Z,1.70
2018-07-01T18:02:04.903Z,1.97
2018-07-01T18:04:34.973Z,1.90
2018-07-01T18:07:03.961Z,1.50
2018-07-01T18:09:32.876Z,2.00
2018-07-01T18:12:01.768Z,1.47
2018-07-01T18:14:30.704Z,1.80
2018-07-01T18:16:59.621Z,1.80
2018-07-01T18:19:28.536Z,7.57
2018-07-01T18:22:21.726Z,1.97
2018-07-01T18:24:48.929Z,1.43
2018-07-01T18:26:57.091Z,1.40
2018-07-01T18:29:26.026Z,1.90
2018-07-01T18:31:55.021Z,1.27
2018-07-01T18:34:25.059Z,1.90
2018-07-01T18:36:54.069Z,1.43
2018-07-01T18:39:22.941Z,2.10
2018-07-01T18:41:53.083Z,1.63
2018-07-01T18:44:22.067Z,1.60
2018-07-01T18:46:51.279Z,1.30
2018-07-01T18:49:20.424Z,1.70
2018-07-01T18:51:50.140Z,1.07
2018-07-01T18:54:19.240Z,1.90
2018-07-01T18:56:48.577Z,2.47
2018-07-01T18:59:17.730Z,2.37
2018-07-01T19:01:46.752Z,1.90
2018-07-01T19:04:15.657Z,3.27
2018-07-01T19:06:44.505Z,2.40
2018-07-01T19:09:14.183Z,2.57
2018-07-01T19:11:43.180Z,4.10
2018-07-01T19:14:11.681Z,3.07
2018-07-01T19:16:40.828Z,2.87
2018-07-01T19:19:09.728Z,3.47
2018-07-01T19:21:38.976Z,3.10
2018-07-01T19:24:07.907Z,2.13
2018-07-01T19:26:36.840Z,2.13
2018-07-01T19:29:05.793Z,2.20
2018-07-01T19:31:34.664Z,1.90
2018-07-01T19:34:03.721Z,2.63
2018-07-01T19:36:32.678Z,4.03
2018-07-01T19:39:01.542Z,2.70
2018-07-01T19:41:30.444Z,2.00
2018-07-01T19:43:59.472Z,2.57
2018-07-01T19:46:27.941Z,3.63
2018-07-01T19:48:56.766Z,2.60
2018-07-01T19:51:25.679Z,2.43
2018-07-01T19:53:54.633Z,2.50
2018-07-01T19:56:24.373Z,3.13
2018-07-01T19:58:53.317Z,3.47
2018-07-01T20:01:22.193Z,5.27
2018-07-01T20:03:51.073Z,6.00
2018-07-01T20:06:20.080Z,1.70
2018-07-01T20:08:49.076Z,2.17
2018-07-01T20:11:18.136Z,1.77
2018-07-01T20:13:47.072Z,1.40
2018-07-01T20:16:17.392Z,2.50
2018-07-01T20:18:48.011Z,1.83
2018-07-01T20:21:16.996Z,1.93
2018-07-01T20:23:45.828Z,3.57
2018-07-01T20:26:14.763Z,1.67
2018-07-01T20:28:43.646Z,1.83
2018-07-01T20:31:12.576Z,1.77
2018-07-01T20:33:41.505Z,1.20
2018-07-01T20:36:10.506Z,1.50
2018-07-01T20:38:39.328Z,1.70
2018-07-01T20:41:08.997Z,1.63
2018-07-01T20:43:38.971Z,1.63
2018-07-01T20:46:07.891Z,1.80
2018-07-01T20:48:36.966Z,1.73
2018-07-01T20:51:05.478Z,1.90
2018-07-01T20:53:34.386Z,1.77
2018-07-01T20:56:03.393Z,1.63
2018-07-01T20:58:32.221Z,1.60
2018-07-01T21:01:01.160Z,2.17
2018-07-01T21:03:30.064Z,2.17
2018-07-01T21:05:58.937Z,1.63
2018-07-01T21:08:28.000Z,1.90
2018-07-01T21:10:56.573Z,1.97
2018-07-01T21:13:25.467Z,1.90
2018-07-01T21:15:53.956Z,1.90
2018-07-01T21:18:23.005Z,1.90
2018-07-01T21:20:52.290Z,1.63
2018-07-01T21:23:21.180Z,1.60
2018-07-01T21:25:51.136Z,1.80
2018-07-01T21:28:20.072Z,1.83
2018-07-01T21:30:49.028Z,1.70
2018-07-01T21:33:17.884Z,1.60
2018-07-01T21:35:46.882Z,1.80
2018-07-01T21:38:15.755Z,1.80
2018-07-01T21:40:44.851Z,1.80
2018-07-01T21:43:15.724Z,1.87
2018-07-01T21:45:45.217Z,1.73
2018-07-01T21:48:14.232Z,1.43
2018-07-01T21:50:44.156Z,1.43
2018-07-01T21:53:13.168Z,1.70
2018-07-01T21:55:42.081Z,1.77
2018-07-01T21:58:11.135Z,2.00
2018-07-01T22:00:40.085Z,1.83
2018-07-01T22:03:09.217Z,1.40
2018-07-01T22:05:37.700Z,1.90
2018-07-01T22:08:07.640Z,1.70
2018-07-01T22:10:47.608Z,1.67
2018-07-01T22:14:31.795Z,2.60
2018-07-01T22:17:00.619Z,3.00
2018-07-01T22:19:29.839Z,2.43
2018-07-01T22:21:59.309Z,1.97
2018-07-01T22:24:30.128Z,1.80
2018-07-01T22:26:59.178Z,1.70
2018-07-01T22:29:28.117Z,1.70
2018-07-01T22:31:57.180Z,1.93
2018-07-01T22:34:26.116Z,1.73
2018-07-01T22:36:55.500Z,1.60
2018-07-01T22:39:25.596Z,1.50
2018-07-01T22:41:55.467Z,1.70
2018-07-01T22:44:24.344Z,1.80
2018-07-01T22:46:53.840Z,1.50
2018-07-01T22:49:22.736Z,1.43
2018-07-01T22:51:54.130Z,1.70
2018-07-01T22:54:23.551Z,1.57
2018-07-01T22:56:53.880Z,1.70
2018-07-01T22:59:22.786Z,1.50
2018-07-01T23:03:05.555Z,1.83
2018-07-01T23:05:34.496Z,1.80
2018-07-01T23:08:04.414Z,1.50
2018-07-01T23:10:34.112Z,1.50
2018-07-01T23:13:03.144Z,1.60
2018-07-01T23:15:32.153Z,1.50
2018-07-01T23:18:01.268Z,1.60
2018-07-01T23:20:30.921Z,1.60
2018-07-01T23:22:59.839Z,1.57
2018-07-01T23:25:28.705Z,1.50
2018-07-01T23:27:58.603Z,1.60
2018-07-01T23:30:27.448Z,1.40
2018-07-01T23:32:56.508Z,1.40
2018-07-01T23:35:25.404Z,1.60
2018-07-01T23:37:54.272Z,1.57
2018-07-01T23:40:23.345Z,1.50
2018-07-01T23:42:52.248Z,1.60
2018-07-01T23:45:21.229Z,1.70
2018-07-01T23:47:50.160Z,1.50
2018-07-01T23:50:19.020Z,1.40
2018-07-01T23:52:47.946Z,1.53
2018-07-01T23:55:16.459Z,1.33
2018-07-01T23:57:45.427Z,1.40
